createdAt,value
2023-04-11T00:00:09.842Z,22.45
2023-04-11T00:02:39.183Z,22.45
2023-04-11T00:05:08.608Z,22.45
2023-04-11T00:07:37.026Z,22.45
2023-04-11T00:10:07.222Z,22.45
2023-04-11T00:12:36.959Z,22.46
2023-04-11T00:15:06.562Z,22.46
2023-04-11T00:17:37.797Z,22.45
2023-04-11T00:20:08.557Z,22.45
2023-04-11T00:22:36.886Z,22.45
2023-04-11T00:25:05.863Z,22.46
2023-04-11T00:27:34.227Z,22.45
2023-04-11T00:30:04.017Z,22.44
2023-04-11T00:32:32.641Z,22.44
2023-04-11T00:35:01.060Z,22.46
2023-04-11T00:37:29.443Z,22.44
2023-04-11T00:39:57.794Z,22.45
2023-04-11T00:42:26.154Z,22.44
2023-04-11T00:44:54.541Z,22.45
2023-04-11T00:47:24.314Z,22.47
2023-04-11T00:49:52.698Z,22.46
2023-04-11T00:52:21.340Z,22.46
2023-04-11T00:54:50.058Z,22.46
2023-04-11T00:57:18.393Z,22.44
2023-04-11T00:59:48.324Z,22.44
2023-04-11T01:02:18.286Z,22.44
2023-04-11T01:04:48.184Z,22.44
2023-04-11T01:07:16.565Z,22.44
2023-04-11T01:09:44.879Z,22.44
2023-04-11T01:12:14.905Z,22.44
2023-04-11T01:14:43.278Z,22.44
2023-04-11T01:17:14.356Z,22.43
2023-04-11T01:19:42.737Z,22.43
2023-04-11T01:22:13.221Z,22.43
2023-04-11T01:24:42.946Z,22.44
2023-04-11T01:27:11.390Z,22.43
2023-04-11T01:29:39.807Z,22.43
2023-04-11T01:32:08.424Z,22.42
2023-04-11T01:34:37.138Z,22.42
2023-04-11T01:37:05.581Z,22.42
2023-04-11T01:39:33.967Z,22.43
2023-04-11T01:42:03.889Z,22.43
2023-04-11T01:44:33.077Z,22.42
2023-04-11T01:47:01.582Z,22.41
2023-04-11T01:49:29.935Z,22.42
2023-04-11T01:51:58.291Z,22.42
2023-04-11T01:54:26.714Z,22.41
2023-04-11T01:56:55.103Z,22.42
2023-04-11T01:59:24.870Z,22.41
2023-04-11T02:01:53.229Z,22.41
2023-04-11T02:04:21.969Z,22.42
2023-04-11T02:06:50.413Z,22.42
2023-04-11T02:09:18.793Z,22.42
2023-04-11T02:11:47.186Z,22.41
2023-04-11T02:14:16.461Z,22.40
2023-04-11T02:16:56.071Z,22.41
2023-04-11T02:19:26.208Z,22.41
2023-04-11T02:21:54.733Z,22.40
2023-04-11T02:24:23.103Z,22.41
2023-04-11T02:26:51.427Z,22.42
2023-04-11T02:29:19.775Z,22.39
2023-04-11T02:31:50.221Z,22.40
2023-04-11T02:34:20.055Z,22.40
2023-04-11T02:36:49.068Z,22.41
2023-04-11T02:39:17.414Z,22.41
2023-04-11T02:41:45.821Z,22.41
2023-04-11T02:44:14.400Z,22.40
2023-04-11T02:46:42.773Z,22.41
2023-04-11T02:49:11.200Z,22.40
2023-04-11T02:51:41.087Z,22.40
2023-04-11T02:54:09.432Z,22.39
2023-04-11T02:56:38.885Z,22.38
2023-04-11T02:59:07.723Z,22.40
2023-04-11T03:01:37.695Z,22.39
2023-04-11T03:04:07.360Z,22.40
2023-04-11T03:06:36.125Z,22.39
2023-04-11T03:09:06.016Z,22.39
2023-04-11T03:11:34.391Z,22.39
2023-04-11T03:14:03.053Z,22.39
2023-04-11T03:16:31.559Z,22.38
2023-04-11T03:18:59.932Z,22.38
2023-04-11T03:21:28.414Z,22.38
2023-04-11T03:23:56.711Z,22.39
2023-04-11T03:26:27.349Z,22.38
2023-04-11T03:28:56.529Z,22.38
2023-04-11T03:31:25.121Z,22.38
2023-04-11T03:33:53.504Z,22.38
2023-04-11T03:36:22.526Z,22.38
2023-04-11T03:38:50.887Z,22.38
2023-04-11T03:41:19.534Z,22.38
2023-04-11T03:43:49.287Z,22.38
2023-04-11T03:46:17.688Z,22.39
2023-04-11T03:48:47.181Z,22.37
2023-04-11T03:51:15.541Z,22.38
2023-04-11T03:53:43.849Z,22.37
2023-04-11T03:56:12.325Z,22.37
2023-04-11T03:58:40.624Z,22.37
2023-04-11T04:01:10.312Z,22.37
2023-04-11T04:03:38.934Z,22.38
2023-04-11T04:06:08.184Z,22.38
2023-04-11T04:08:36.766Z,22.37
2023-04-11T04:11:05.451Z,22.37
2023-04-11T04:13:34.035Z,22.37
2023-04-11T04:16:03.653Z,22.37
2023-04-11T04:18:33.691Z,22.37
2023-04-11T04:21:02.029Z,22.37
2023-04-11T04:23:32.542Z,22.37
2023-04-11T04:26:02.356Z,22.37
2023-04-11T04:28:31.184Z,22.37
2023-04-11T04:30:59.554Z,22.37
2023-04-11T04:33:27.936Z,22.38
2023-04-11T04:35:59.907Z,22.37
2023-04-11T04:38:29.064Z,22.38
2023-04-11T04:40:57.414Z,22.39
2023-04-11T04:43:27.395Z,22.38
2023-04-11T04:45:55.844Z,22.42
2023-04-11T04:48:25.638Z,22.40
2023-04-11T04:50:54.072Z,22.38
2023-04-11T04:53:23.781Z,22.38
2023-04-11T04:55:52.330Z,22.37
2023-04-11T04:58:20.782Z,22.37
2023-04-11T05:00:55.916Z,22.36
2023-04-11T05:03:24.850Z,22.37
2023-04-11T05:05:53.287Z,22.39
2023-04-11T05:08:22.956Z,22.38
2023-04-11T05:10:51.353Z,22.41
2023-04-11T05:13:19.786Z,22.41
2023-04-11T05:15:49.428Z,22.42
2023-04-11T05:18:17.780Z,22.44
2023-04-11T05:20:46.277Z,22.47
2023-04-11T05:23:14.651Z,22.45
2023-04-11T05:25:44.356Z,22.48
2023-04-11T05:28:12.707Z,22.42
2023-04-11T05:30:41.410Z,22.38
2023-04-11T05:33:09.900Z,22.36
2023-04-11T05:35:38.389Z,22.39
2023-04-11T05:38:06.803Z,22.44
2023-04-11T05:40:35.131Z,22.44
2023-04-11T05:43:05.375Z,22.46
2023-04-11T05:45:33.717Z,22.49
2023-04-11T05:48:02.149Z,22.50
2023-04-11T05:50:30.529Z,22.51
2023-04-11T05:52:58.881Z,22.54
2023-04-11T05:55:27.326Z,22.53
2023-04-11T05:57:55.849Z,22.55
2023-04-11T06:00:26.326Z,22.57
2023-04-11T06:02:55.097Z,22.59
2023-04-11T06:05:23.600Z,22.59
2023-04-11T06:07:52.122Z,22.57
2023-04-11T06:10:20.518Z,22.58
2023-04-11T06:12:48.916Z,22.58
2023-04-11T06:15:17.314Z,22.61
2023-04-11T06:17:47.119Z,22.60
2023-04-11T06:20:16.137Z,22.60
2023-04-11T06:22:46.365Z,22.61
2023-04-11T06:25:15.778Z,22.62
2023-04-11T06:27:44.115Z,22.63
2023-04-11T06:30:14.034Z,22.64
2023-04-11T06:35:12.320Z,22.69
2023-04-11T06:37:42.479Z,22.70
2023-04-11T06:40:12.782Z,22.68
2023-04-11T06:42:41.286Z,22.64
2023-04-11T06:45:12.113Z,22.64
2023-04-11T06:47:40.585Z,22.65
2023-04-11T06:50:12.243Z,22.65
2023-04-11T06:52:40.643Z,22.66
2023-04-11T06:55:10.280Z,22.66
2023-04-11T06:57:38.727Z,22.68
2023-04-11T07:00:09.655Z,22.68
2023-04-11T07:02:39.385Z,22.70
2023-04-11T07:05:10.309Z,22.69
2023-04-11T07:07:40.327Z,22.69
2023-04-11T07:10:10.211Z,22.70
2023-04-11T07:12:38.572Z,22.70
2023-04-11T07:15:08.664Z,22.68
2023-04-11T07:17:37.193Z,22.69
2023-04-11T07:20:08.904Z,22.70
2023-04-11T07:22:37.720Z,22.68
2023-04-11T07:25:08.802Z,22.70
2023-04-11T07:27:37.303Z,22.70
2023-04-11T07:30:07.161Z,22.71
2023-04-11T07:32:35.494Z,22.71
2023-04-11T07:35:03.915Z,22.72
2023-04-11T07:37:32.666Z,22.74
2023-04-11T07:40:01.053Z,22.70
2023-04-11T07:42:30.803Z,22.68
2023-04-11T07:44:59.193Z,22.68
2023-04-11T07:47:27.657Z,22.69
2023-04-11T07:49:56.041Z,22.70
2023-04-11T07:52:24.362Z,22.70
2023-04-11T07:54:52.776Z,22.70
2023-04-11T07:57:21.216Z,22.71
2023-04-11T07:59:51.213Z,22.71
2023-04-11T08:02:19.704Z,22.72
2023-04-11T08:04:48.269Z,22.72
2023-04-11T08:07:16.685Z,22.70
2023-04-11T08:09:45.011Z,22.70
2023-04-11T08:12:13.360Z,22.71
2023-04-11T08:14:41.744Z,22.70
2023-04-11T08:17:27.051Z,22.70
2023-04-11T08:19:57.506Z,22.70
2023-04-11T08:22:26.057Z,22.70
2023-04-11T08:24:54.570Z,22.71
2023-04-11T08:27:23.061Z,22.71
2023-04-11T08:29:51.686Z,22.70
2023-04-11T08:32:21.540Z,22.72
2023-04-11T08:34:49.950Z,22.72
2023-04-11T08:37:18.301Z,22.73
2023-04-11T08:39:46.763Z,22.74
2023-04-11T08:42:25.441Z,22.76
2023-04-11T08:44:57.807Z,22.76
2023-04-11T08:47:27.609Z,22.77
2023-04-11T08:49:56.630Z,22.78
2023-04-11T08:52:25.078Z,22.79
2023-04-11T08:54:55.968Z,22.80
2023-04-11T08:57:28.280Z,22.81
2023-04-11T08:59:57.285Z,22.83
2023-04-11T09:02:27.569Z,22.82
2023-04-11T09:04:57.844Z,22.84
2023-04-11T09:07:26.863Z,22.83
2023-04-11T09:09:55.394Z,22.84
2023-04-11T09:12:30.422Z,22.85
2023-04-11T09:14:58.829Z,22.84
2023-04-11T09:17:29.157Z,22.83
2023-04-11T09:19:57.717Z,22.84
2023-04-11T09:22:36.091Z,22.84
2023-04-11T09:25:04.765Z,22.85
2023-04-11T09:27:33.244Z,22.85
2023-04-11T09:30:02.222Z,22.82
2023-04-11T09:32:33.821Z,22.84
2023-04-11T09:35:16.006Z,22.84
2023-04-11T09:37:46.883Z,22.84
2023-04-11T09:40:16.707Z,22.86
2023-04-11T09:42:45.147Z,22.85
2023-04-11T09:45:19.435Z,22.86
2023-04-11T09:47:49.816Z,22.88
2023-04-11T09:50:18.632Z,22.88
2023-04-11T09:52:47.182Z,22.87
2023-04-11T09:55:16.862Z,22.87
2023-04-11T09:57:47.693Z,22.88
2023-04-11T10:00:19.624Z,22.89
2023-04-11T10:02:53.020Z,22.90
2023-04-11T10:05:22.238Z,22.86
2023-04-11T10:07:53.814Z,22.90
2023-04-11T10:10:23.131Z,22.89
2023-04-11T10:12:51.613Z,22.89
2023-04-11T10:15:20.051Z,22.89
2023-04-11T10:18:11.778Z,22.88
2023-04-11T10:20:46.220Z,22.89
2023-04-11T10:23:16.130Z,22.89
2023-04-11T10:25:55.773Z,22.88
2023-04-11T10:28:38.870Z,22.89
2023-04-11T10:31:10.033Z,22.89
2023-04-11T10:33:41.684Z,22.91
2023-04-11T10:36:11.190Z,22.90
2023-04-11T10:38:49.732Z,22.90
2023-04-11T10:41:36.132Z,22.90
2023-04-11T10:44:21.040Z,22.91
2023-04-11T10:46:51.677Z,22.89
2023-04-11T10:49:38.331Z,22.91
2023-04-11T10:52:27.734Z,22.90
2023-04-11T10:54:56.280Z,22.90
2023-04-11T10:57:24.777Z,22.90
2023-04-11T11:00:01.153Z,22.90
2023-04-11T11:02:40.085Z,22.91
2023-04-11T11:05:24.820Z,22.91
2023-04-11T11:07:54.810Z,22.92
2023-04-11T11:10:43.042Z,22.93
2023-04-11T11:13:11.701Z,22.93
2023-04-11T11:15:40.849Z,22.94
2023-04-11T11:18:10.851Z,22.95
2023-04-11T11:20:40.836Z,22.93
2023-04-11T11:23:10.376Z,22.93
2023-04-11T11:25:38.824Z,22.95
2023-04-11T11:28:08.591Z,22.94
2023-04-11T11:30:37.590Z,22.94
2023-04-11T11:33:19.202Z,22.93
2023-04-11T11:35:53.333Z,22.94
2023-04-11T11:38:22.216Z,22.94
2023-04-11T11:40:50.773Z,22.94
2023-04-11T11:43:19.259Z,22.94
2023-04-11T11:45:47.882Z,22.96
2023-04-11T11:48:23.397Z,22.96
2023-04-11T11:50:58.487Z,22.97
2023-04-11T11:53:27.179Z,22.93
2023-04-11T11:55:56.895Z,22.97
2023-04-11T11:58:25.590Z,22.99
2023-04-11T12:00:54.186Z,22.99
2023-04-11T12:03:24.368Z,23.00
2023-04-11T12:05:53.833Z,22.98
2023-04-11T12:08:24.278Z,22.98
2023-04-11T12:10:52.797Z,22.97
2023-04-11T12:13:23.661Z,22.97
2023-04-11T12:15:53.596Z,22.97
2023-04-11T12:18:22.830Z,22.91
2023-04-11T12:20:51.484Z,22.98
2023-04-11T12:23:19.905Z,23.00
2023-04-11T12:25:49.756Z,23.01
2023-04-11T12:28:18.186Z,23.02
2023-04-11T12:30:46.572Z,23.05
2023-04-11T12:33:14.944Z,23.04
2023-04-11T12:35:43.332Z,23.04
2023-04-11T12:38:14.913Z,23.05
2023-04-11T12:40:46.590Z,23.05
2023-04-11T12:43:16.310Z,23.04
2023-04-11T12:45:44.714Z,23.07
2023-04-11T12:48:13.105Z,23.08
2023-04-11T12:50:41.574Z,23.09
2023-04-11T12:53:09.974Z,23.05
2023-04-11T12:55:38.426Z,23.07
2023-04-11T12:58:08.146Z,23.07
2023-04-11T13:00:37.861Z,23.06
2023-04-11T13:03:06.748Z,23.04
2023-04-11T13:05:37.141Z,23.05
2023-04-11T13:08:05.568Z,23.06
2023-04-11T13:10:34.034Z,23.07
2023-04-11T13:13:11.675Z,23.08
2023-04-11T13:15:47.768Z,23.08
2023-04-11T13:18:16.258Z,23.08
2023-04-11T13:20:44.847Z,23.06
2023-04-11T13:23:14.860Z,23.08
2023-04-11T13:25:44.982Z,23.08
2023-04-11T13:28:13.318Z,23.07
2023-04-11T13:30:42.122Z,23.07
2023-04-11T13:33:11.956Z,23.06
2023-04-11T13:35:40.263Z,23.07
2023-04-11T13:38:08.705Z,23.05
2023-04-11T13:40:38.265Z,23.05
2023-04-11T13:43:06.639Z,23.06
2023-04-11T13:45:35.159Z,23.06
2023-04-11T13:48:03.930Z,23.05
2023-04-11T13:50:35.415Z,23.05
2023-04-11T13:53:03.762Z,23.05
2023-04-11T13:55:32.191Z,23.05
2023-04-11T13:58:00.604Z,23.04
2023-04-11T14:00:29.173Z,23.06
2023-04-11T14:02:57.757Z,23.05
2023-04-11T14:05:27.142Z,23.04
2023-04-11T14:07:57.683Z,23.05
2023-04-11T14:10:26.079Z,23.05
2023-04-11T14:12:54.540Z,23.05
2023-04-11T14:15:23.100Z,23.05
2023-04-11T14:17:51.559Z,23.02
2023-04-11T14:20:20.338Z,23.04
2023-04-11T14:22:48.839Z,23.03
2023-04-11T14:25:18.553Z,23.03
2023-04-11T14:27:46.976Z,23.02
2023-04-11T14:30:15.644Z,23.03
2023-04-11T14:32:44.086Z,23.03
2023-04-11T14:35:12.483Z,23.02
2023-04-11T14:37:41.168Z,23.02
2023-04-11T14:40:11.428Z,23.02
2023-04-11T14:42:41.326Z,23.01
2023-04-11T14:45:10.041Z,23.01
2023-04-11T14:47:39.988Z,23.01
2023-04-11T14:50:09.999Z,23.00
2023-04-11T14:52:38.799Z,23.01
2023-04-11T14:55:09.141Z,23.01
2023-04-11T14:57:47.115Z,23.00
2023-04-11T15:00:19.899Z,23.02
2023-04-11T15:02:49.302Z,23.01
2023-04-11T15:05:18.303Z,22.99
2023-04-11T15:07:47.080Z,23.00
2023-04-11T15:10:15.861Z,23.01
2023-04-11T15:12:45.677Z,23.01
2023-04-11T15:15:14.227Z,22.99
2023-04-11T15:17:44.260Z,22.99
2023-04-11T15:20:14.498Z,22.99
2023-04-11T15:22:43.729Z,22.98
2023-04-11T15:25:14.038Z,22.99
2023-04-11T15:27:42.693Z,22.99
2023-04-11T15:30:13.721Z,22.99
2023-04-11T15:32:43.681Z,22.98
2023-04-11T15:35:12.350Z,22.98
2023-04-11T15:37:41.166Z,22.98
2023-04-11T15:40:12.389Z,22.98
2023-04-11T15:42:41.047Z,22.98
2023-04-11T15:45:11.819Z,22.97
2023-04-11T15:47:40.283Z,22.98
2023-04-11T15:50:09.581Z,22.96
2023-04-11T15:52:37.947Z,22.98
2023-04-11T15:55:07.954Z,22.98
2023-04-11T15:57:36.326Z,22.97
2023-04-11T16:00:09.057Z,22.97
2023-04-11T16:02:39.037Z,22.97
2023-04-11T16:05:08.633Z,22.97
2023-04-11T16:07:37.216Z,22.98
2023-04-11T16:10:06.412Z,22.99
2023-04-11T16:12:34.764Z,23.01
2023-04-11T16:15:03.369Z,23.03
2023-04-11T16:17:31.839Z,23.03
2023-04-11T16:20:01.569Z,23.02
2023-04-11T16:22:30.213Z,23.03
2023-04-11T16:24:58.735Z,23.02
2023-04-11T16:27:27.113Z,22.99
2023-04-11T16:29:59.924Z,23.01
2023-04-11T16:32:29.011Z,23.00
2023-04-11T16:34:57.890Z,23.01
2023-04-11T16:37:27.767Z,23.02
2023-04-11T16:39:56.990Z,23.02
2023-04-11T16:42:25.418Z,23.02
2023-04-11T16:44:53.873Z,23.03
2023-04-11T16:47:26.243Z,23.03
2023-04-11T16:49:55.064Z,23.04
2023-04-11T16:52:23.662Z,23.04
2023-04-11T16:54:53.626Z,23.05
2023-04-11T16:57:22.064Z,23.04
2023-04-11T16:59:51.096Z,23.04
2023-04-11T17:02:19.929Z,23.05
2023-04-11T17:04:48.351Z,23.05
2023-04-11T17:07:17.462Z,23.06
2023-04-11T17:09:48.588Z,23.06
2023-04-11T17:12:18.513Z,23.09
2023-04-11T17:14:47.631Z,23.09
2023-04-11T17:17:16.068Z,23.08
2023-04-11T17:19:44.462Z,23.09
2023-04-11T17:22:12.905Z,23.09
2023-04-11T17:24:41.936Z,23.08
2023-04-11T17:27:10.428Z,23.08
2023-04-11T17:29:40.166Z,23.07
2023-04-11T17:32:08.547Z,23.09
2023-04-11T17:34:36.985Z,23.05
2023-04-11T17:37:06.519Z,23.05
2023-04-11T17:39:34.895Z,23.07
2023-04-11T17:42:03.326Z,23.05
2023-04-11T17:44:31.675Z,23.04
2023-04-11T17:47:01.466Z,23.05
2023-04-11T17:49:29.796Z,23.05
2023-04-11T17:51:59.711Z,23.05
2023-04-11T17:58:42.546Z,23.07
2023-04-11T18:01:11.558Z,23.08
2023-04-11T18:03:41.766Z,23.09
2023-04-11T18:06:11.060Z,23.07
2023-04-11T18:08:50.470Z,23.07
2023-04-11T18:11:21.145Z,23.06
2023-04-11T18:13:50.470Z,23.06
2023-04-11T18:16:19.457Z,23.05
2023-04-11T18:18:49.428Z,23.05
2023-04-11T18:21:18.106Z,23.06
2023-04-11T18:23:46.647Z,23.05
2023-04-11T18:26:15.300Z,23.06
2023-04-11T18:28:44.220Z,23.05
2023-04-11T18:31:12.945Z,23.04
2023-04-11T18:33:44.892Z,23.04
2023-04-11T18:36:15.883Z,23.05
2023-04-11T18:38:44.725Z,23.05
2023-04-11T18:41:13.308Z,23.01
2023-04-11T18:43:42.373Z,23.01
2023-04-11T18:46:11.553Z,23.02
2023-04-11T18:48:40.332Z,23.04
2023-04-11T18:51:08.872Z,23.07
2023-04-11T18:53:39.540Z,23.07
2023-04-11T18:56:08.938Z,23.06
2023-04-11T18:58:44.960Z,23.06
2023-04-11T19:01:17.268Z,23.06
2023-04-11T19:03:46.848Z,23.05
2023-04-11T19:06:15.632Z,23.03
2023-04-11T19:08:46.171Z,23.03
2023-04-11T19:11:14.651Z,23.03
2023-04-11T19:13:43.158Z,23.03
2023-04-11T19:16:12.017Z,23.04
2023-04-11T19:18:40.747Z,23.04
2023-04-11T19:21:09.283Z,23.01
2023-04-11T19:23:37.880Z,23.01
2023-04-11T19:26:09.033Z,23.01
2023-04-11T19:28:37.553Z,23.00
2023-04-11T19:31:06.774Z,23.01
2023-04-11T19:33:36.115Z,23.06
2023-04-11T19:36:04.998Z,23.05
2023-04-11T19:38:33.597Z,23.01
2023-04-11T19:41:13.390Z,23.03
2023-04-11T19:43:42.798Z,23.01
2023-04-11T19:46:12.443Z,23.02
2023-04-11T19:48:41.408Z,22.99
2023-04-11T19:51:09.993Z,22.99
2023-04-11T19:53:39.118Z,22.99
2023-04-11T19:56:09.976Z,22.99
2023-04-11T19:58:39.988Z,22.98
2023-04-11T20:01:09.800Z,22.98
2023-04-11T20:03:38.570Z,22.99
2023-04-11T20:06:07.988Z,22.99
2023-04-11T20:08:38.278Z,22.99
2023-04-11T20:11:07.280Z,22.98
2023-04-11T20:13:36.272Z,22.98
2023-04-11T20:16:09.453Z,22.98
2023-04-11T20:18:38.008Z,22.98
2023-04-11T20:21:07.834Z,22.99
2023-04-11T20:23:37.164Z,22.98
2023-04-11T20:26:05.998Z,22.97
2023-04-11T20:28:34.410Z,22.97
2023-04-11T20:31:04.468Z,22.97
2023-04-11T20:33:34.397Z,22.96
2023-04-11T20:36:03.795Z,22.96
2023-04-11T20:38:32.397Z,22.96
2023-04-11T20:41:03.877Z,22.97
2023-04-11T20:43:32.714Z,22.99
2023-04-11T20:46:01.124Z,22.99
2023-04-11T20:48:30.176Z,22.91
2023-04-11T20:51:01.860Z,22.94
2023-04-11T20:53:30.423Z,22.97
2023-04-11T20:55:58.920Z,22.98
2023-04-11T20:58:28.395Z,22.98
2023-04-11T21:00:56.839Z,22.98
2023-04-11T21:03:25.412Z,22.97
2023-04-11T21:05:53.889Z,22.98
2023-04-11T21:08:24.123Z,22.94
2023-04-11T21:10:52.457Z,22.91
2023-04-11T21:13:20.818Z,22.90
2023-04-11T21:15:49.261Z,22.90
2023-04-11T21:18:17.685Z,22.90
2023-04-11T21:20:46.274Z,22.90
2023-04-11T21:23:14.639Z,22.91
2023-04-11T21:25:44.350Z,22.92
2023-04-11T21:28:12.828Z,22.93
2023-04-11T21:30:42.387Z,22.93
2023-04-11T21:33:11.101Z,22.93
2023-04-11T21:35:39.520Z,22.94
2023-04-11T21:38:08.592Z,22.94
2023-04-11T21:40:36.926Z,22.94
2023-04-11T21:43:07.139Z,22.94
2023-04-11T21:45:35.585Z,22.94
2023-04-11T21:48:04.016Z,22.94
2023-04-11T21:50:32.561Z,22.97
2023-04-11T21:53:00.972Z,22.97
2023-04-11T21:55:29.352Z,22.96
2023-04-11T21:57:57.723Z,22.94
2023-04-11T22:00:27.852Z,22.96
2023-04-11T22:02:56.376Z,22.93
2023-04-11T22:05:26.399Z,22.93
2023-04-11T22:08:10.278Z,22.93
2023-04-11T22:10:47.666Z,22.93
2023-04-11T22:13:16.701Z,22.93
2023-04-11T22:15:48.883Z,22.93
2023-04-11T22:18:17.401Z,22.93
2023-04-11T22:20:46.422Z,22.93
2023-04-11T22:23:17.695Z,22.92
2023-04-11T22:25:46.214Z,22.93
2023-04-11T22:28:15.691Z,22.93
2023-04-11T22:30:46.406Z,22.93
2023-04-11T22:33:14.816Z,22.93
2023-04-11T22:35:44.017Z,22.92
2023-04-11T22:38:12.398Z,22.92
2023-04-11T22:40:41.311Z,22.92
2023-04-11T22:43:09.831Z,22.91
2023-04-11T22:45:38.228Z,22.92
2023-04-11T22:48:08.175Z,22.93
2023-04-11T22:50:37.302Z,22.91
2023-04-11T22:53:05.785Z,22.90
2023-04-11T22:55:35.044Z,22.89
2023-04-11T22:58:03.486Z,22.88
2023-04-11T23:00:38.229Z,22.88
2023-04-11T23:03:08.429Z,22.88
2023-04-11T23:05:39.575Z,22.87
2023-04-11T23:08:07.976Z,22.87
2023-04-11T23:10:36.403Z,22.90
2023-04-11T23:13:04.838Z,22.89
2023-04-11T23:15:33.201Z,22.89
2023-04-11T23:18:01.651Z,22.89
2023-04-11T23:20:31.946Z,22.89
2023-04-11T23:23:00.282Z,22.89
2023-04-11T23:25:29.216Z,22.88
2023-04-11T23:27:57.583Z,22.89
2023-04-11T23:30:26.188Z,22.89
2023-04-11T23:32:54.579Z,22.89
2023-04-11T23:35:23.795Z,22.89
2023-04-11T23:37:53.522Z,22.89
2023-04-11T23:40:22.875Z,22.88
2023-04-11T23:42:51.660Z,22.88
2023-04-11T23:45:22.609Z,22.88
2023-04-11T23:47:51.184Z,22.87
2023-04-11T23:50:19.632Z,22.88
2023-04-11T23:52:48.103Z,22.88
2023-04-11T23:55:17.889Z,22.87
2023-04-11T23:57:46.235Z,22.87
